sensor_id;sensor_type;location;lat;lon;timestamp;P1;durP1;ratioP1;P2;durP2;ratioP2
20146;SDS011;10234;50.856;15.716;2024-03-23T00:53:53;6.50;;;3.78;;
20146;SDS011;10234;50.856;15.716;2024-03-23T00:56:19;6.45;;;3.90;;
20146;SDS011;10234;50.856;15.716;2024-03-23T00:58:46;7.63;;;4.72;;
20146;SDS011;10234;50.856;15.716;2024-03-23T01:01:12;4.65;;;3.85;;
20146;SDS011;10234;50.856;15.716;2024-03-23T01:03:39;6.70;;;4.30;;
20146;SDS011;10234;50.856;15.716;2024-03-23T01:06:05;6.88;;;4.47;;
20146;SDS011;10234;50.856;15.716;2024-03-23T01:08:31;6.53;;;3.80;;
20146;SDS011;10234;50.856;15.716;2024-03-23T01:10:59;5.75;;;3.90;;
20146;SDS011;10234;50.856;15.716;2024-03-23T01:13:27;6.22;;;3.45;;
20146;SDS011;10234;50.856;15.716;2024-03-23T01:15:54;5.63;;;3.70;;
20146;SDS011;10234;50.856;15.716;2024-03-23T01:18:22;7.15;;;4.07;;
20146;SDS011;10234;50.856;15.716;2024-03-23T01:20:49;7.22;;;3.78;;
20146;SDS011;10234;50.856;15.716;2024-03-23T01:23:16;6.00;;;3.92;;
20146;SDS011;10234;50.856;15.716;2024-03-23T01:25:42;6.82;;;4.10;;
20146;SDS011;10234;50.856;15.716;2024-03-23T01:28:10;5.90;;;4.03;;
20146;SDS011;10234;50.856;15.716;2024-03-23T01:30:36;7.45;;;3.72;;
20146;SDS011;10234;50.856;15.716;2024-03-23T01:33:03;10.38;;;4.60;;
20146;SDS011;10234;50.856;15.716;2024-03-23T01:35:29;5.53;;;4.20;;
20146;SDS011;10234;50.856;15.716;2024-03-23T01:37:55;5.03;;;3.75;;
20146;SDS011;10234;50.856;15.716;2024-03-23T01:40:21;6.00;;;4.07;;
20146;SDS011;10234;50.856;15.716;2024-03-23T01:42:55;6.28;;;4.10;;
20146;SDS011;10234;50.856;15.716;2024-03-23T01:45:22;6.00;;;4.35;;
20146;SDS011;10234;50.856;15.716;2024-03-23T01:47:49;5.70;;;3.95;;
20146;SDS011;10234;50.856;15.716;2024-03-23T01:50:15;7.35;;;4.50;;
20146;SDS011;10234;50.856;15.716;2024-03-23T01:52:43;5.88;;;3.85;;
20146;SDS011;10234;50.856;15.716;2024-03-23T01:55:09;7.00;;;3.72;;
20146;SDS011;10234;50.856;15.716;2024-03-23T01:57:36;5.55;;;3.97;;
20146;SDS011;10234;50.856;15.716;2024-03-23T02:00:02;7.90;;;4.18;;
20146;SDS011;10234;50.856;15.716;2024-03-23T02:02:31;6.47;;;4.50;;
20146;SDS011;10234;50.856;15.716;2024-03-23T02:04:57;7.00;;;4.32;;
20146;SDS011;10234;50.856;15.716;2024-03-23T02:07:24;5.95;;;3.90;;
20146;SDS011;10234;50.856;15.716;2024-03-23T02:09:50;6.45;;;4.07;;
20146;SDS011;10234;50.856;15.716;2024-03-23T02:12:17;7.68;;;4.00;;
20146;SDS011;10234;50.856;15.716;2024-03-23T02:14:43;9.80;;;4.20;;
20146;SDS011;10234;50.856;15.716;2024-03-23T02:17:10;5.55;;;3.97;;
20146;SDS011;10234;50.856;15.716;2024-03-23T02:19:37;7.13;;;4.13;;
20146;SDS011;10234;50.856;15.716;2024-03-23T02:22:04;7.65;;;4.07;;
20146;SDS011;10234;50.856;15.716;2024-03-23T02:24:32;5.80;;;4.03;;
20146;SDS011;10234;50.856;15.716;2024-03-23T02:26:59;5.72;;;4.18;;
20146;SDS011;10234;50.856;15.716;2024-03-23T02:29:25;4.43;;;3.05;;
20146;SDS011;10234;50.856;15.716;2024-03-23T02:31:52;7.53;;;4.53;;
20146;SDS011;10234;50.856;15.716;2024-03-23T02:34:17;4.28;;;3.75;;
20146;SDS011;10234;50.856;15.716;2024-03-23T02:36:44;6.80;;;4.35;;
20146;SDS011;10234;50.856;15.716;2024-03-23T02:39:10;4.03;;;3.63;;
20146;SDS011;10234;50.856;15.716;2024-03-23T02:41:38;4.88;;;3.33;;
20146;SDS011;10234;50.856;15.716;2024-03-23T02:44:05;6.10;;;3.47;;
20146;SDS011;10234;50.856;15.716;2024-03-23T02:46:32;5.95;;;3.65;;
20146;SDS011;10234;50.856;15.716;2024-03-23T02:48:57;5.57;;;3.47;;
20146;SDS011;10234;50.856;15.716;2024-03-23T02:51:24;6.40;;;3.13;;
20146;SDS011;10234;50.856;15.716;2024-03-23T02:53:51;5.22;;;3.22;;
20146;SDS011;10234;50.856;15.716;2024-03-23T02:56:18;4.35;;;3.30;;
20146;SDS011;10234;50.856;15.716;2024-03-23T02:58:45;4.00;;;3.20;;
20146;SDS011;10234;50.856;15.716;2024-03-23T03:01:12;4.40;;;3.38;;
20146;SDS011;10234;50.856;15.716;2024-03-23T03:03:38;5.60;;;3.10;;
20146;SDS011;10234;50.856;15.716;2024-03-23T03:06:05;6.32;;;3.58;;
20146;SDS011;10234;50.856;15.716;2024-03-23T03:08:31;5.63;;;2.78;;
20146;SDS011;10234;50.856;15.716;2024-03-23T03:10:58;5.80;;;2.65;;
20146;SDS011;10234;50.856;15.716;2024-03-23T03:13:23;3.38;;;2.60;;
20146;SDS011;10234;50.856;15.716;2024-03-23T03:15:52;5.60;;;2.85;;
20146;SDS011;10234;50.856;15.716;2024-03-23T03:18:18;4.00;;;2.75;;
20146;SDS011;10234;50.856;15.716;2024-03-23T03:20:45;5.10;;;3.47;;
20146;SDS011;10234;50.856;15.716;2024-03-23T03:23:11;5.90;;;3.28;;
20146;SDS011;10234;50.856;15.716;2024-03-23T03:25:38;3.88;;;3.40;;
20146;SDS011;10234;50.856;15.716;2024-03-23T03:28:04;7.05;;;3.83;;
20146;SDS011;10234;50.856;15.716;2024-03-23T03:30:31;5.60;;;4.10;;
20146;SDS011;10234;50.856;15.716;2024-03-23T03:32:58;5.10;;;3.72;;
20146;SDS011;10234;50.856;15.716;2024-03-23T03:35:25;4.68;;;3.92;;
20146;SDS011;10234;50.856;15.716;2024-03-23T03:37:51;5.75;;;3.55;;
20146;SDS011;10234;50.856;15.716;2024-03-23T03:40:17;8.35;;;4.30;;
20146;SDS011;10234;50.856;15.716;2024-03-23T03:42:43;5.15;;;4.15;;
20146;SDS011;10234;50.856;15.716;2024-03-23T03:45:10;10.07;;;4.57;;
20146;SDS011;10234;50.856;15.716;2024-03-23T03:47:36;5.85;;;4.25;;
20146;SDS011;10234;50.856;15.716;2024-03-23T03:50:05;6.97;;;4.47;;
20146;SDS011;10234;50.856;15.716;2024-03-23T03:52:32;6.95;;;4.60;;
20146;SDS011;10234;50.856;15.716;2024-03-23T03:55:01;6.28;;;4.30;;
20146;SDS011;10234;50.856;15.716;2024-03-23T03:57:27;4.40;;;3.95;;
20146;SDS011;10234;50.856;15.716;2024-03-23T03:59:54;7.45;;;4.28;;
20146;SDS011;10234;50.856;15.716;2024-03-23T04:02:20;4.22;;;3.83;;
20146;SDS011;10234;50.856;15.716;2024-03-23T04:04:47;6.28;;;4.65;;
20146;SDS011;10234;50.856;15.716;2024-03-23T04:07:15;7.50;;;4.32;;
20146;SDS011;10234;50.856;15.716;2024-03-23T04:09:43;6.78;;;4.40;;
20146;SDS011;10234;50.856;15.716;2024-03-23T04:12:09;6.40;;;4.65;;
20146;SDS011;10234;50.856;15.716;2024-03-23T04:14:36;6.65;;;4.05;;
20146;SDS011;10234;50.856;15.716;2024-03-23T04:17:02;8.93;;;4.15;;
20146;SDS011;10234;50.856;15.716;2024-03-23T04:19:29;6.28;;;4.00;;
20146;SDS011;10234;50.856;15.716;2024-03-23T04:21:55;5.10;;;3.70;;
20146;SDS011;10234;50.856;15.716;2024-03-23T04:24:23;6.43;;;4.03;;
20146;SDS011;10234;50.856;15.716;2024-03-23T04:26:51;5.88;;;4.85;;
20146;SDS011;10234;50.856;15.716;2024-03-23T04:29:18;5.65;;;4.05;;
20146;SDS011;10234;50.856;15.716;2024-03-23T04:31:44;6.75;;;4.60;;
20146;SDS011;10234;50.856;15.716;2024-03-23T04:34:12;7.55;;;4.93;;
20146;SDS011;10234;50.856;15.716;2024-03-23T04:36:39;5.85;;;4.72;;
20146;SDS011;10234;50.856;15.716;2024-03-23T04:39:06;7.18;;;4.53;;
20146;SDS011;10234;50.856;15.716;2024-03-23T04:41:35;6.45;;;4.82;;
20146;SDS011;10234;50.856;15.716;2024-03-23T04:44:02;5.03;;;4.10;;
20146;SDS011;10234;50.856;15.716;2024-03-23T04:46:29;6.85;;;4.70;;
20146;SDS011;10234;50.856;15.716;2024-03-23T04:48:56;6.82;;;4.72;;
20146;SDS011;10234;50.856;15.716;2024-03-23T04:51:23;7.10;;;4.03;;
20146;SDS011;10234;50.856;15.716;2024-03-23T04:53:49;6.40;;;4.80;;
20146;SDS011;10234;50.856;15.716;2024-03-23T04:56:16;7.70;;;5.07;;
20146;SDS011;10234;50.856;15.716;2024-03-23T04:58:43;7.35;;;5.45;;
20146;SDS011;10234;50.856;15.716;2024-03-23T05:01:10;8.82;;;5.90;;
20146;SDS011;10234;50.856;15.716;2024-03-23T05:03:36;10.13;;;6.55;;
20146;SDS011;10234;50.856;15.716;2024-03-23T05:06:03;10.20;;;5.82;;
20146;SDS011;10234;50.856;15.716;2024-03-23T05:08:30;8.32;;;5.47;;
20146;SDS011;10234;50.856;15.716;2024-03-23T05:10:57;10.52;;;6.28;;
20146;SDS011;10234;50.856;15.716;2024-03-23T05:13:23;8.77;;;6.05;;
20146;SDS011;10234;50.856;15.716;2024-03-23T05:15:52;11.60;;;6.00;;
20146;SDS011;10234;50.856;15.716;2024-03-23T05:18:18;9.75;;;6.82;;
20146;SDS011;10234;50.856;15.716;2024-03-23T05:20:45;10.48;;;6.47;;
20146;SDS011;10234;50.856;15.716;2024-03-23T05:23:11;7.80;;;6.13;;
20146;SDS011;10234;50.856;15.716;2024-03-23T05:25:38;9.18;;;7.43;;
20146;SDS011;10234;50.856;15.716;2024-03-23T05:28:04;10.20;;;6.40;;
20146;SDS011;10234;50.856;15.716;2024-03-23T05:30:31;8.30;;;5.78;;
20146;SDS011;10234;50.856;15.716;2024-03-23T05:32:59;8.80;;;6.10;;
20146;SDS011;10234;50.856;15.716;2024-03-23T05:35:25;9.27;;;5.20;;
20146;SDS011;10234;50.856;15.716;2024-03-23T05:37:51;8.38;;;6.53;;
20146;SDS011;10234;50.856;15.716;2024-03-23T05:40:18;11.43;;;8.32;;
20146;SDS011;10234;50.856;15.716;2024-03-23T05:42:44;9.18;;;6.32;;
20146;SDS011;10234;50.856;15.716;2024-03-23T05:45:11;11.02;;;7.45;;
20146;SDS011;10234;50.856;15.716;2024-03-23T05:47:37;13.63;;;7.82;;
20146;SDS011;10234;50.856;15.716;2024-03-23T05:50:06;10.98;;;7.30;;
20146;SDS011;10234;50.856;15.716;2024-03-23T05:52:32;12.77;;;7.15;;
20146;SDS011;10234;50.856;15.716;2024-03-23T05:55:02;10.70;;;7.57;;
20146;SDS011;10234;50.856;15.716;2024-03-23T05:57:27;11.43;;;8.80;;
20146;SDS011;10234;50.856;15.716;2024-03-23T05:59:55;13.70;;;8.20;;
20146;SDS011;10234;50.856;15.716;2024-03-23T06:02:20;10.95;;;8.10;;
20146;SDS011;10234;50.856;15.716;2024-03-23T06:04:48;14.60;;;8.73;;
20146;SDS011;10234;50.856;15.716;2024-03-23T06:07:15;15.52;;;8.98;;
20146;SDS011;10234;50.856;15.716;2024-03-23T06:09:42;14.20;;;9.45;;
20146;SDS011;10234;50.856;15.716;2024-03-23T06:12:08;12.07;;;8.13;;
20146;SDS011;10234;50.856;15.716;2024-03-23T06:14:35;12.50;;;7.85;;
20146;SDS011;10234;50.856;15.716;2024-03-23T06:17:01;8.23;;;6.65;;
20146;SDS011;10234;50.856;15.716;2024-03-23T06:19:28;8.82;;;6.38;;
20146;SDS011;10234;50.856;15.716;2024-03-23T06:21:54;8.45;;;6.57;;
20146;SDS011;10234;50.856;15.716;2024-03-23T06:24:22;8.75;;;6.93;;
20146;SDS011;10234;50.856;15.716;2024-03-23T06:26:49;8.20;;;6.32;;
20146;SDS011;10234;50.856;15.716;2024-03-23T06:29:16;7.75;;;6.63;;
20146;SDS011;10234;50.856;15.716;2024-03-23T06:31:45;7.00;;;6.28;;
20146;SDS011;10234;50.856;15.716;2024-03-23T06:34:19;7.45;;;6.47;;
20146;SDS011;10234;50.856;15.716;2024-03-23T06:36:46;7.35;;;5.95;;
20146;SDS011;10234;50.856;15.716;2024-03-23T06:39:14;7.75;;;6.35;;
20146;SDS011;10234;50.856;15.716;2024-03-23T06:41:41;7.78;;;5.88;;
20146;SDS011;10234;50.856;15.716;2024-03-23T06:44:08;7.30;;;6.22;;
20146;SDS011;10234;50.856;15.716;2024-03-23T06:46:34;7.03;;;5.97;;
20146;SDS011;10234;50.856;15.716;2024-03-23T06:49:01;6.93;;;5.90;;
20146;SDS011;10234;50.856;15.716;2024-03-23T06:51:27;9.40;;;7.28;;
20146;SDS011;10234;50.856;15.716;2024-03-23T06:53:54;8.40;;;6.43;;
20146;SDS011;10234;50.856;15.716;2024-03-23T06:56:20;8.60;;;6.65;;
20146;SDS011;10234;50.856;15.716;2024-03-23T06:58:48;9.68;;;6.53;;
20146;SDS011;10234;50.856;15.716;2024-03-23T07:01:15;11.10;;;7.82;;
20146;SDS011;10234;50.856;15.716;2024-03-23T07:03:42;10.05;;;7.80;;
20146;SDS011;10234;50.856;15.716;2024-03-23T07:06:08;10.13;;;8.52;;
20146;SDS011;10234;50.856;15.716;2024-03-23T07:08:36;12.07;;;10.10;;
20146;SDS011;10234;50.856;15.716;2024-03-23T07:11:02;12.88;;;10.45;;
20146;SDS011;10234;50.856;15.716;2024-03-23T07:13:29;9.90;;;8.60;;
20146;SDS011;10234;50.856;15.716;2024-03-23T07:15:57;13.02;;;10.02;;
20146;SDS011;10234;50.856;15.716;2024-03-23T07:18:25;9.50;;;7.88;;
20146;SDS011;10234;50.856;15.716;2024-03-23T07:20:54;8.73;;;7.47;;
20146;SDS011;10234;50.856;15.716;2024-03-23T07:23:23;11.23;;;6.85;;
20146;SDS011;10234;50.856;15.716;2024-03-23T07:25:58;9.10;;;6.90;;
20146;SDS011;10234;50.856;15.716;2024-03-23T07:28:25;9.52;;;6.65;;
20146;SDS011;10234;50.856;15.716;2024-03-23T07:31:02;8.40;;;6.95;;
20146;SDS011;10234;50.856;15.716;2024-03-23T07:33:30;8.95;;;6.90;;
20146;SDS011;10234;50.856;15.716;2024-03-23T07:35:56;7.95;;;6.70;;
20146;SDS011;10234;50.856;15.716;2024-03-23T07:38:24;7.63;;;6.18;;
20146;SDS011;10234;50.856;15.716;2024-03-23T07:40:51;11.30;;;5.93;;
20146;SDS011;10234;50.856;15.716;2024-03-23T07:43:28;7.57;;;5.90;;
20146;SDS011;10234;50.856;15.716;2024-03-23T07:45:54;7.97;;;5.30;;
20146;SDS011;10234;50.856;15.716;2024-03-23T07:48:22;6.57;;;5.60;;
20146;SDS011;10234;50.856;15.716;2024-03-23T07:50:55;8.20;;;5.43;;
20146;SDS011;10234;50.856;15.716;2024-03-23T07:53:23;8.15;;;5.30;;
20146;SDS011;10234;50.856;15.716;2024-03-23T07:55:52;8.98;;;5.40;;
20146;SDS011;10234;50.856;15.716;2024-03-23T07:58:20;4.40;;;4.00;;
20146;SDS011;10234;50.856;15.716;2024-03-23T08:00:46;6.68;;;5.03;;
20146;SDS011;10234;50.856;15.716;2024-03-23T08:03:13;7.53;;;5.13;;
20146;SDS011;10234;50.856;15.716;2024-03-23T08:05:41;9.27;;;6.03;;
20146;SDS011;10234;50.856;15.716;2024-03-23T08:08:08;8.43;;;5.28;;
20146;SDS011;10234;50.856;15.716;2024-03-23T08:10:34;7.00;;;5.97;;
20146;SDS011;10234;50.856;15.716;2024-03-23T08:13:00;7.43;;;4.90;;
20146;SDS011;10234;50.856;15.716;2024-03-23T08:15:26;6.13;;;4.45;;
20146;SDS011;10234;50.856;15.716;2024-03-23T08:17:53;5.72;;;4.68;;
20146;SDS011;10234;50.856;15.716;2024-03-23T08:20:19;5.50;;;4.32;;
20146;SDS011;10234;50.856;15.716;2024-03-23T08:22:47;5.43;;;4.50;;
20146;SDS011;10234;50.856;15.716;2024-03-23T08:25:13;4.53;;;3.28;;
20146;SDS011;10234;50.856;15.716;2024-03-23T08:27:41;4.88;;;4.38;;
20146;SDS011;10234;50.856;15.716;2024-03-23T08:30:12;6.80;;;3.47;;
20146;SDS011;10234;50.856;15.716;2024-03-23T08:32:39;4.25;;;3.60;;
20146;SDS011;10234;50.856;15.716;2024-03-23T08:35:05;5.75;;;3.08;;
20146;SDS011;10234;50.856;15.716;2024-03-23T08:37:33;5.03;;;2.63;;
20146;SDS011;10234;50.856;15.716;2024-03-23T08:40:00;6.18;;;4.15;;
20146;SDS011;10234;50.856;15.716;2024-03-23T08:42:27;5.43;;;3.28;;
20146;SDS011;10234;50.856;15.716;2024-03-23T08:44:53;4.70;;;3.35;;
20146;SDS011;10234;50.856;15.716;2024-03-23T08:47:19;5.47;;;3.50;;
20146;SDS011;10234;50.856;15.716;2024-03-23T08:49:45;3.78;;;3.13;;
20146;SDS011;10234;50.856;15.716;2024-03-23T08:52:12;6.47;;;3.35;;
20146;SDS011;10234;50.856;15.716;2024-03-23T08:54:38;5.85;;;3.58;;
20146;SDS011;10234;50.856;15.716;2024-03-23T08:57:06;6.53;;;3.22;;
20146;SDS011;10234;50.856;15.716;2024-03-23T08:59:33;5.90;;;3.78;;
20146;SDS011;10234;50.856;15.716;2024-03-23T09:01:59;4.18;;;3.55;;
20146;SDS011;10234;50.856;15.716;2024-03-23T09:04:25;4.85;;;3.95;;
20146;SDS011;10234;50.856;15.716;2024-03-23T09:06:52;6.10;;;4.80;;
20146;SDS011;10234;50.856;15.716;2024-03-23T09:09:18;5.75;;;4.47;;
20146;SDS011;10234;50.856;15.716;2024-03-23T09:11:46;4.93;;;3.72;;
20146;SDS011;10234;50.856;15.716;2024-03-23T09:14:13;7.53;;;4.15;;
20146;SDS011;10234;50.856;15.716;2024-03-23T09:16:40;5.07;;;3.58;;
20146;SDS011;10234;50.856;15.716;2024-03-23T09:19:05;5.85;;;4.03;;
20146;SDS011;10234;50.856;15.716;2024-03-23T09:21:32;4.22;;;3.60;;
20146;SDS011;10234;50.856;15.716;2024-03-23T09:23:58;7.25;;;4.20;;
20146;SDS011;10234;50.856;15.716;2024-03-23T09:26:25;5.32;;;3.85;;
20146;SDS011;10234;50.856;15.716;2024-03-23T09:28:51;5.82;;;4.18;;
20146;SDS011;10234;50.856;15.716;2024-03-23T09:31:19;3.35;;;2.95;;
20146;SDS011;10234;50.856;15.716;2024-03-23T09:33:45;4.45;;;4.03;;
20146;SDS011;10234;50.856;15.716;2024-03-23T09:36:12;8.05;;;4.45;;
20146;SDS011;10234;50.856;15.716;2024-03-23T09:38:37;6.90;;;4.18;;
20146;SDS011;10234;50.856;15.716;2024-03-23T09:41:06;3.83;;;3.35;;
20146;SDS011;10234;50.856;15.716;2024-03-23T09:43:33;5.28;;;4.25;;
20146;SDS011;10234;50.856;15.716;2024-03-23T09:46:00;3.88;;;3.47;;
20146;SDS011;10234;50.856;15.716;2024-03-23T09:48:28;4.90;;;3.92;;
20146;SDS011;10234;50.856;15.716;2024-03-23T09:50:55;5.50;;;4.22;;
20146;SDS011;10234;50.856;15.716;2024-03-23T09:53:22;4.70;;;3.17;;
20146;SDS011;10234;50.856;15.716;2024-03-23T09:55:49;5.07;;;3.60;;
20146;SDS011;10234;50.856;15.716;2024-03-23T09:58:15;3.90;;;3.38;;
20146;SDS011;10234;50.856;15.716;2024-03-23T10:00:43;3.97;;;3.53;;
20146;SDS011;10234;50.856;15.716;2024-03-23T10:03:11;4.13;;;3.50;;
20146;SDS011;10234;50.856;15.716;2024-03-23T10:05:40;3.80;;;3.05;;
20146;SDS011;10234;50.856;15.716;2024-03-23T10:08:17;3.28;;;3.00;;
20146;SDS011;10234;50.856;15.716;2024-03-23T10:10:44;4.22;;;3.65;;
20146;SDS011;10234;50.856;15.716;2024-03-23T10:13:11;4.47;;;3.08;;
20146;SDS011;10234;50.856;15.716;2024-03-23T10:15:54;6.80;;;3.78;;
20146;SDS011;10234;50.856;15.716;2024-03-23T10:18:23;3.95;;;3.30;;
20146;SDS011;10234;50.856;15.716;2024-03-23T10:21:00;3.40;;;3.10;;
20146;SDS011;10234;50.856;15.716;2024-03-23T10:23:32;4.28;;;3.00;;
20146;SDS011;10234;50.856;15.716;2024-03-23T10:26:04;5.63;;;3.15;;
20146;SDS011;10234;50.856;15.716;2024-03-23T10:28:55;4.72;;;3.28;;
20146;SDS011;10234;50.856;15.716;2024-03-23T10:31:30;3.17;;;2.60;;
20146;SDS011;10234;50.856;15.716;2024-03-23T10:33:57;3.83;;;2.80;;
20146;SDS011;10234;50.856;15.716;2024-03-23T10:36:27;3.38;;;3.08;;
20146;SDS011;10234;50.856;15.716;2024-03-23T10:38:55;3.70;;;3.38;;
20146;SDS011;10234;50.856;15.716;2024-03-23T10:41:24;3.63;;;3.17;;
20146;SDS011;10234;50.856;15.716;2024-03-23T10:43:53;4.47;;;3.00;;
20146;SDS011;10234;50.856;15.716;2024-03-23T10:46:22;4.13;;;3.20;;
20146;SDS011;10234;50.856;15.716;2024-03-23T10:48:49;3.90;;;3.30;;
20146;SDS011;10234;50.856;15.716;2024-03-23T10:51:15;6.25;;;3.53;;
20146;SDS011;10234;50.856;15.716;2024-03-23T10:53:44;4.13;;;3.10;;
20146;SDS011;10234;50.856;15.716;2024-03-23T10:58:47;2.75;;;2.50;;
20146;SDS011;10234;50.856;15.716;2024-03-23T11:01:15;2.65;;;2.15;;
20146;SDS011;10234;50.856;15.716;2024-03-23T11:03:44;3.00;;;2.55;;
20146;SDS011;10234;50.856;15.716;2024-03-23T11:09:02;2.03;;;1.85;;
20146;SDS011;10234;50.856;15.716;2024-03-23T11:11:28;2.38;;;2.17;;
20146;SDS011;10234;50.856;15.716;2024-03-23T11:13:58;2.35;;;2.13;;
20146;SDS011;10234;50.856;15.716;2024-03-23T11:16:25;2.33;;;2.05;;
20146;SDS011;10234;50.856;15.716;2024-03-23T11:18:55;2.58;;;2.33;;
20146;SDS011;10234;50.856;15.716;2024-03-23T11:21:58;2.83;;;2.63;;
20146;SDS011;10234;50.856;15.716;2024-03-23T11:24:27;4.28;;;2.85;;
20146;SDS011;10234;50.856;15.716;2024-03-23T11:26:52;3.50;;;2.65;;
20146;SDS011;10234;50.856;15.716;2024-03-23T11:29:19;3.13;;;2.55;;
20146;SDS011;10234;50.856;15.716;2024-03-23T11:31:46;2.60;;;2.40;;
20146;SDS011;10234;50.856;15.716;2024-03-23T11:34:13;3.08;;;2.78;;
20146;SDS011;10234;50.856;15.716;2024-03-23T11:39:20;3.05;;;2.70;;
20146;SDS011;10234;50.856;15.716;2024-03-23T11:44:21;3.08;;;2.40;;
20146;SDS011;10234;50.856;15.716;2024-03-23T11:46:49;3.33;;;2.65;;
20146;SDS011;10234;50.856;15.716;2024-03-23T11:51:50;2.58;;;2.38;;
20146;SDS011;10234;50.856;15.716;2024-03-23T11:54:19;4.95;;;2.75;;
20146;SDS011;10234;50.856;15.716;2024-03-23T11:56:55;4.20;;;3.03;;
20146;SDS011;10234;50.856;15.716;2024-03-23T11:59:34;4.00;;;3.17;;
20146;SDS011;10234;50.856;15.716;2024-03-23T12:07:14;2.17;;;1.98;;
20146;SDS011;10234;50.856;15.716;2024-03-23T12:09:44;3.30;;;2.40;;
20146;SDS011;10234;50.856;15.716;2024-03-23T12:12:13;2.30;;;1.92;;
20146;SDS011;10234;50.856;15.716;2024-03-23T12:14:43;1.73;;;1.50;;
20146;SDS011;10234;50.856;15.716;2024-03-23T12:17:10;0.90;;;0.90;;
20146;SDS011;10234;50.856;15.716;2024-03-23T12:19:37;1.33;;;1.23;;
20146;SDS011;10234;50.856;15.716;2024-03-23T12:22:03;1.50;;;1.40;;
20146;SDS011;10234;50.856;15.716;2024-03-23T12:24:31;2.38;;;1.70;;
20146;SDS011;10234;50.856;15.716;2024-03-23T12:26:59;2.47;;;1.63;;
20146;SDS011;10234;50.856;15.716;2024-03-23T12:29:28;2.53;;;1.25;;
20146;SDS011;10234;50.856;15.716;2024-03-23T12:31:56;1.80;;;1.58;;
20146;SDS011;10234;50.856;15.716;2024-03-23T12:34:23;1.48;;;1.38;;
20146;SDS011;10234;50.856;15.716;2024-03-23T12:36:49;2.53;;;1.75;;
20146;SDS011;10234;50.856;15.716;2024-03-23T12:39:16;3.67;;;1.52;;
20146;SDS011;10234;50.856;15.716;2024-03-23T12:41:41;1.35;;;1.25;;
20146;SDS011;10234;50.856;15.716;2024-03-23T12:44:09;1.98;;;1.52;;
20146;SDS011;10234;50.856;15.716;2024-03-23T12:46:36;1.70;;;1.60;;
20146;SDS011;10234;50.856;15.716;2024-03-23T12:49:05;1.70;;;1.60;;
20146;SDS011;10234;50.856;15.716;2024-03-23T12:51:32;1.02;;;1.02;;
20146;SDS011;10234;50.856;15.716;2024-03-23T12:53:58;1.67;;;1.00;;
20146;SDS011;10234;50.856;15.716;2024-03-23T12:56:25;1.70;;;1.08;;
20146;SDS011;10234;50.856;15.716;2024-03-23T12:58:53;0.85;;;0.85;;
20146;SDS011;10234;50.856;15.716;2024-03-23T13:01:22;1.23;;;0.80;;
20146;SDS011;10234;50.856;15.716;2024-03-23T13:03:48;1.50;;;0.95;;
20146;SDS011;10234;50.856;15.716;2024-03-23T13:06:17;3.47;;;2.20;;
20146;SDS011;10234;50.856;15.716;2024-03-23T13:08:43;2.08;;;1.65;;
20146;SDS011;10234;50.856;15.716;2024-03-23T13:11:11;1.90;;;1.10;;
20146;SDS011;10234;50.856;15.716;2024-03-23T13:13:37;1.10;;;1.10;;
20146;SDS011;10234;50.856;15.716;2024-03-23T13:16:04;2.38;;;2.10;;
20146;SDS011;10234;50.856;15.716;2024-03-23T13:18:30;1.75;;;1.65;;
20146;SDS011;10234;50.856;15.716;2024-03-23T13:20:58;1.15;;;1.00;;
20146;SDS011;10234;50.856;15.716;2024-03-23T13:23:25;0.60;;;0.60;;
20146;SDS011;10234;50.856;15.716;2024-03-23T13:25:53;0.57;;;0.57;;
20146;SDS011;10234;50.856;15.716;2024-03-23T13:28:20;0.52;;;0.52;;
20146;SDS011;10234;50.856;15.716;2024-03-23T13:30:50;0.57;;;0.50;;
20146;SDS011;10234;50.856;15.716;2024-03-23T13:33:17;0.57;;;0.57;;
20146;SDS011;10234;50.856;15.716;2024-03-23T13:35:50;0.80;;;0.80;;
20146;SDS011;10234;50.856;15.716;2024-03-23T13:38:16;0.77;;;0.73;;
20146;SDS011;10234;50.856;15.716;2024-03-23T13:41:03;0.82;;;0.70;;
20146;SDS011;10234;50.856;15.716;2024-03-23T13:43:31;1.50;;;0.70;;
20146;SDS011;10234;50.856;15.716;2024-03-23T13:45:59;0.90;;;0.90;;
20146;SDS011;10234;50.856;15.716;2024-03-23T13:48:26;0.52;;;0.52;;
20146;SDS011;10234;50.856;15.716;2024-03-23T13:50:57;0.47;;;0.47;;
20146;SDS011;10234;50.856;15.716;2024-03-23T13:53:23;0.60;;;0.60;;
20146;SDS011;10234;50.856;15.716;2024-03-23T13:55:51;0.90;;;0.50;;
20146;SDS011;10234;50.856;15.716;2024-03-23T13:58:19;0.32;;;0.32;;
20146;SDS011;10234;50.856;15.716;2024-03-23T14:00:47;0.47;;;0.40;;
20146;SDS011;10234;50.856;15.716;2024-03-23T14:03:13;0.70;;;0.40;;
20146;SDS011;10234;50.856;15.716;2024-03-23T14:05:40;0.65;;;0.40;;
20146;SDS011;10234;50.856;15.716;2024-03-23T14:08:06;0.40;;;0.40;;
20146;SDS011;10234;50.856;15.716;2024-03-23T14:10:34;0.85;;;0.65;;
20146;SDS011;10234;50.856;15.716;2024-03-23T14:13:00;0.60;;;0.60;;
20146;SDS011;10234;50.856;15.716;2024-03-23T14:15:29;0.30;;;0.30;;
20146;SDS011;10234;50.856;15.716;2024-03-23T14:17:55;0.95;;;0.40;;
20146;SDS011;10234;50.856;15.716;2024-03-23T14:20:23;0.30;;;0.30;;
20146;SDS011;10234;50.856;15.716;2024-03-23T14:22:50;0.40;;;0.40;;
20146;SDS011;10234;50.856;15.716;2024-03-23T14:25:17;0.32;;;0.32;;
20146;SDS011;10234;50.856;15.716;2024-03-23T14:27:43;0.52;;;0.40;;
20146;SDS011;10234;50.856;15.716;2024-03-23T14:30:11;0.50;;;0.50;;
20146;SDS011;10234;50.856;15.716;2024-03-23T14:32:39;0.60;;;0.60;;
20146;SDS011;10234;50.856;15.716;2024-03-23T14:35:06;0.40;;;0.40;;
20146;SDS011;10234;50.856;15.716;2024-03-23T14:37:35;0.43;;;0.40;;
20146;SDS011;10234;50.856;15.716;2024-03-23T14:40:03;0.60;;;0.40;;
20146;SDS011;10234;50.856;15.716;2024-03-23T14:42:30;0.38;;;0.38;;
20146;SDS011;10234;50.856;15.716;2024-03-23T14:44:57;0.73;;;0.60;;
20146;SDS011;10234;50.856;15.716;2024-03-23T14:47:24;0.65;;;0.50;;
20146;SDS011;10234;50.856;15.716;2024-03-23T14:49:53;0.50;;;0.50;;
20146;SDS011;10234;50.856;15.716;2024-03-23T14:52:19;0.50;;;0.50;;
20146;SDS011;10234;50.856;15.716;2024-03-23T14:54:48;0.55;;;0.45;;
20146;SDS011;10234;50.856;15.716;2024-03-23T14:57:14;0.88;;;0.70;;
20146;SDS011;10234;50.856;15.716;2024-03-23T14:59:43;1.00;;;0.43;;
20146;SDS011;10234;50.856;15.716;2024-03-23T15:02:09;0.68;;;0.57;;
20146;SDS011;10234;50.856;15.716;2024-03-23T15:04:38;0.60;;;0.60;;
20146;SDS011;10234;50.856;15.716;2024-03-23T15:07:08;0.80;;;0.80;;
20146;SDS011;10234;50.856;15.716;2024-03-23T15:09:37;0.57;;;0.57;;
20146;SDS011;10234;50.856;15.716;2024-03-23T15:12:03;1.13;;;0.77;;
20146;SDS011;10234;50.856;15.716;2024-03-23T15:14:31;0.60;;;0.60;;
20146;SDS011;10234;50.856;15.716;2024-03-23T15:16:56;1.50;;;1.40;;
20146;SDS011;10234;50.856;15.716;2024-03-23T15:19:23;1.30;;;0.52;;
20146;SDS011;10234;50.856;15.716;2024-03-23T15:21:49;0.68;;;0.50;;
20146;SDS011;10234;50.856;15.716;2024-03-23T15:24:18;0.50;;;0.50;;
20146;SDS011;10234;50.856;15.716;2024-03-23T15:26:44;0.80;;;0.77;;
20146;SDS011;10234;50.856;15.716;2024-03-23T15:29:11;1.10;;;0.93;;
20146;SDS011;10234;50.856;15.716;2024-03-23T15:31:41;0.70;;;0.70;;
20146;SDS011;10234;50.856;15.716;2024-03-23T15:34:08;1.20;;;0.85;;
20146;SDS011;10234;50.856;15.716;2024-03-23T15:36:36;0.80;;;0.68;;
20146;SDS011;10234;50.856;15.716;2024-03-23T15:39:10;2.65;;;1.40;;
20146;SDS011;10234;50.856;15.716;2024-03-23T15:41:40;2.33;;;1.40;;
20146;SDS011;10234;50.856;15.716;2024-03-23T15:44:07;1.55;;;0.80;;
20146;SDS011;10234;50.856;15.716;2024-03-23T15:46:33;0.82;;;0.82;;